sensor_id;sensor_type;location;lat;lon;timestamp;P1;durP1;ratioP1;P2;durP2;ratioP2
76786;SDS011;65739;51.482;5.702;2023-05-15T00:05:31;30.50;;;19.40;;
76786;SDS011;65739;51.482;5.702;2023-05-15T00:08:45;31.13;;;19.67;;
76786;SDS011;65739;51.482;5.702;2023-05-15T00:11:41;31.63;;;18.95;;
76786;SDS011;65739;51.482;5.702;2023-05-15T00:14:51;34.55;;;18.77;;
76786;SDS011;65739;51.482;5.702;2023-05-15T00:21:15;32.35;;;20.65;;
76786;SDS011;65739;51.482;5.702;2023-05-15T00:27:07;32.47;;;19.88;;
76786;SDS011;65739;51.482;5.702;2023-05-15T00:29:54;38.92;;;22.02;;
76786;SDS011;65739;51.482;5.702;2023-05-15T00:32:48;39.03;;;22.35;;
76786;SDS011;65739;51.482;5.702;2023-05-15T00:38:32;33.42;;;23.42;;
76786;SDS011;65739;51.482;5.702;2023-05-15T00:41:18;40.47;;;24.33;;
76786;SDS011;65739;51.482;5.702;2023-05-15T00:44:16;33.92;;;24.08;;
76786;SDS011;65739;51.482;5.702;2023-05-15T00:47:04;36.88;;;24.88;;
76786;SDS011;65739;51.482;5.702;2023-05-15T00:50:14;41.83;;;24.33;;
76786;SDS011;65739;51.482;5.702;2023-05-15T00:56:28;44.28;;;26.40;;
76786;SDS011;65739;51.482;5.702;2023-05-15T00:59:52;42.30;;;26.08;;
76786;SDS011;65739;51.482;5.702;2023-05-15T01:12:22;45.80;;;27.38;;
76786;SDS011;65739;51.482;5.702;2023-05-15T01:19:00;42.97;;;27.88;;
76786;SDS011;65739;51.482;5.702;2023-05-15T01:35:30;46.80;;;27.80;;
76786;SDS011;65739;51.482;5.702;2023-05-15T01:43:55;48.25;;;28.35;;
76786;SDS011;65739;51.482;5.702;2023-05-15T01:46:43;47.08;;;28.52;;
76786;SDS011;65739;51.482;5.702;2023-05-15T01:49:12;51.28;;;29.10;;
76786;SDS011;65739;51.482;5.702;2023-05-15T01:51:39;49.40;;;28.88;;
76786;SDS011;65739;51.482;5.702;2023-05-15T01:54:39;44.30;;;27.60;;
76786;SDS011;65739;51.482;5.702;2023-05-15T01:57:45;48.15;;;28.80;;
76786;SDS011;65739;51.482;5.702;2023-05-15T02:00:16;43.28;;;28.10;;
76786;SDS011;65739;51.482;5.702;2023-05-15T02:03:12;46.40;;;29.33;;
76786;SDS011;65739;51.482;5.702;2023-05-15T02:06:07;47.42;;;28.67;;
76786;SDS011;65739;51.482;5.702;2023-05-15T02:12:27;50.75;;;29.33;;
76786;SDS011;65739;51.482;5.702;2023-05-15T02:44:59;56.10;;;32.15;;
76786;SDS011;65739;51.482;5.702;2023-05-15T02:50:55;57.38;;;33.13;;
76786;SDS011;65739;51.482;5.702;2023-05-15T02:57:35;57.35;;;33.35;;
76786;SDS011;65739;51.482;5.702;2023-05-15T03:00:30;55.70;;;32.65;;
76786;SDS011;65739;51.482;5.702;2023-05-15T03:03:27;56.53;;;33.38;;
76786;SDS011;65739;51.482;5.702;2023-05-15T03:06:20;57.25;;;32.55;;
76786;SDS011;65739;51.482;5.702;2023-05-15T03:09:35;58.22;;;31.98;;
76786;SDS011;65739;51.482;5.702;2023-05-15T03:12:05;52.58;;;31.98;;
76786;SDS011;65739;51.482;5.702;2023-05-15T03:15:08;66.72;;;35.92;;
76786;SDS011;65739;51.482;5.702;2023-05-15T03:24:26;63.08;;;33.88;;
76786;SDS011;65739;51.482;5.702;2023-05-15T03:27:26;62.97;;;35.45;;
76786;SDS011;65739;51.482;5.702;2023-05-15T03:30:36;66.45;;;36.42;;
76786;SDS011;65739;51.482;5.702;2023-05-15T03:33:42;62.40;;;34.67;;
76786;SDS011;65739;51.482;5.702;2023-05-15T03:43:19;72.38;;;37.58;;
76786;SDS011;65739;51.482;5.702;2023-05-15T03:46:05;70.32;;;36.10;;
76786;SDS011;65739;51.482;5.702;2023-05-15T03:49:28;69.35;;;36.47;;
76786;SDS011;65739;51.482;5.702;2023-05-15T03:52:37;65.57;;;36.85;;
76786;SDS011;65739;51.482;5.702;2023-05-15T03:55:33;70.78;;;37.35;;
76786;SDS011;65739;51.482;5.702;2023-05-15T03:58:35;78.75;;;38.58;;
76786;SDS011;65739;51.482;5.702;2023-05-15T04:01:26;77.55;;;39.55;;
76786;SDS011;65739;51.482;5.702;2023-05-15T04:04:22;74.72;;;38.85;;
76786;SDS011;65739;51.482;5.702;2023-05-15T04:20:24;75.32;;;39.60;;
76786;SDS011;65739;51.482;5.702;2023-05-15T04:23:08;76.22;;;39.00;;
76786;SDS011;65739;51.482;5.702;2023-05-15T04:26:07;71.45;;;39.70;;
76786;SDS011;65739;51.482;5.702;2023-05-15T04:29:16;75.95;;;41.25;;
76786;SDS011;65739;51.482;5.702;2023-05-15T04:32:04;78.25;;;38.30;;
76786;SDS011;65739;51.482;5.702;2023-05-15T04:34:50;69.75;;;37.42;;
76786;SDS011;65739;51.482;5.702;2023-05-15T04:37:46;73.43;;;36.13;;
76786;SDS011;65739;51.482;5.702;2023-05-15T04:41:06;72.85;;;37.28;;
76786;SDS011;65739;51.482;5.702;2023-05-15T04:50:40;70.13;;;36.58;;
76786;SDS011;65739;51.482;5.702;2023-05-15T04:59:57;67.60;;;36.63;;
76786;SDS011;65739;51.482;5.702;2023-05-15T05:02:57;61.95;;;35.75;;
76786;SDS011;65739;51.482;5.702;2023-05-15T05:05:59;66.15;;;36.30;;
76786;SDS011;65739;51.482;5.702;2023-05-15T05:23:55;58.25;;;34.53;;
76786;SDS011;65739;51.482;5.702;2023-05-15T05:29:06;55.88;;;33.55;;
76786;SDS011;65739;51.482;5.702;2023-05-15T05:31:59;55.70;;;32.83;;
76786;SDS011;65739;51.482;5.702;2023-05-15T05:38:14;49.60;;;29.88;;
76786;SDS011;65739;51.482;5.702;2023-05-15T05:41:22;45.15;;;29.42;;
76786;SDS011;65739;51.482;5.702;2023-05-15T05:44:09;51.05;;;30.08;;
76786;SDS011;65739;51.482;5.702;2023-05-15T05:46:52;42.95;;;29.13;;
76786;SDS011;65739;51.482;5.702;2023-05-15T05:49:33;49.90;;;28.48;;
76786;SDS011;65739;51.482;5.702;2023-05-15T05:52:12;42.20;;;27.52;;
76786;SDS011;65739;51.482;5.702;2023-05-15T05:55:28;45.90;;;29.35;;
76786;SDS011;65739;51.482;5.702;2023-05-15T05:58:20;42.27;;;27.53;;
76786;SDS011;65739;51.482;5.702;2023-05-15T06:04:22;43.17;;;27.40;;
76786;SDS011;65739;51.482;5.702;2023-05-15T06:07:47;40.65;;;27.08;;
76786;SDS011;65739;51.482;5.702;2023-05-15T06:10:33;40.33;;;27.02;;
76786;SDS011;65739;51.482;5.702;2023-05-15T06:17:13;44.35;;;28.00;;
76786;SDS011;65739;51.482;5.702;2023-05-15T06:23:38;40.17;;;26.85;;
76786;SDS011;65739;51.482;5.702;2023-05-15T06:26:18;42.50;;;27.60;;
76786;SDS011;65739;51.482;5.702;2023-05-15T06:29:35;42.05;;;26.20;;
76786;SDS011;65739;51.482;5.702;2023-05-15T06:32:29;42.28;;;24.95;;
76786;SDS011;65739;51.482;5.702;2023-05-15T06:35:53;35.80;;;24.58;;
76786;SDS011;65739;51.482;5.702;2023-05-15T06:38:58;36.28;;;24.42;;
76786;SDS011;65739;51.482;5.702;2023-05-15T06:42:04;34.65;;;24.73;;
76786;SDS011;65739;51.482;5.702;2023-05-15T06:47:58;39.45;;;25.50;;
76786;SDS011;65739;51.482;5.702;2023-05-15T06:54:30;42.28;;;25.90;;
76786;SDS011;65739;51.482;5.702;2023-05-15T06:57:43;43.88;;;26.75;;
76786;SDS011;65739;51.482;5.702;2023-05-15T07:07:00;36.08;;;25.17;;
76786;SDS011;65739;51.482;5.702;2023-05-15T07:13:00;34.40;;;23.63;;
76786;SDS011;65739;51.482;5.702;2023-05-15T07:15:28;33.28;;;22.15;;
76786;SDS011;65739;51.482;5.702;2023-05-15T07:17:56;32.65;;;23.00;;
76786;SDS011;65739;51.482;5.702;2023-05-15T07:20:41;36.65;;;23.30;;
76786;SDS011;65739;51.482;5.702;2023-05-15T07:30:16;34.38;;;22.00;;
76786;SDS011;65739;51.482;5.702;2023-05-15T07:33:11;32.25;;;22.48;;
76786;SDS011;65739;51.482;5.702;2023-05-15T07:35:36;34.60;;;21.65;;
76786;SDS011;65739;51.482;5.702;2023-05-15T07:38:02;31.88;;;21.63;;
76786;SDS011;65739;51.482;5.702;2023-05-15T07:40:30;32.88;;;21.63;;
76786;SDS011;65739;51.482;5.702;2023-05-15T07:42:58;28.70;;;20.98;;
76786;SDS011;65739;51.482;5.702;2023-05-15T07:45:24;25.15;;;19.30;;
76786;SDS011;65739;51.482;5.702;2023-05-15T07:47:49;30.27;;;21.20;;
76786;SDS011;65739;51.482;5.702;2023-05-15T07:50:18;31.75;;;20.50;;
76786;SDS011;65739;51.482;5.702;2023-05-15T07:53:10;30.30;;;22.23;;
76786;SDS011;65739;51.482;5.702;2023-05-15T07:59:38;29.20;;;19.98;;
76786;SDS011;65739;51.482;5.702;2023-05-15T08:02:42;23.55;;;16.80;;
76786;SDS011;65739;51.482;5.702;2023-05-15T08:05:35;23.58;;;17.55;;
76786;SDS011;65739;51.482;5.702;2023-05-15T08:08:01;27.75;;;17.52;;
76786;SDS011;65739;51.482;5.702;2023-05-15T08:10:40;24.65;;;18.08;;
76786;SDS011;65739;51.482;5.702;2023-05-15T08:13:35;23.40;;;17.70;;
76786;SDS011;65739;51.482;5.702;2023-05-15T08:16:30;21.10;;;16.90;;
76786;SDS011;65739;51.482;5.702;2023-05-15T08:18:58;20.15;;;14.98;;
76786;SDS011;65739;51.482;5.702;2023-05-15T08:21:35;20.50;;;15.50;;
76786;SDS011;65739;51.482;5.702;2023-05-15T08:24:59;22.10;;;15.80;;
76786;SDS011;65739;51.482;5.702;2023-05-15T08:28:06;23.13;;;16.25;;
76786;SDS011;65739;51.482;5.702;2023-05-15T08:31:11;18.48;;;14.63;;
76786;SDS011;65739;51.482;5.702;2023-05-15T08:34:34;20.77;;;15.77;;
76786;SDS011;65739;51.482;5.702;2023-05-15T08:41:01;21.92;;;14.88;;
76786;SDS011;65739;51.482;5.702;2023-05-15T08:43:54;21.20;;;14.60;;
76786;SDS011;65739;51.482;5.702;2023-05-15T08:46:42;22.98;;;15.25;;
76786;SDS011;65739;51.482;5.702;2023-05-15T08:49:35;21.75;;;15.95;;
76786;SDS011;65739;51.482;5.702;2023-05-15T08:52:41;19.38;;;15.07;;
76786;SDS011;65739;51.482;5.702;2023-05-15T08:55:48;18.83;;;14.15;;
76786;SDS011;65739;51.482;5.702;2023-05-15T08:58:27;18.02;;;12.85;;
76786;SDS011;65739;51.482;5.702;2023-05-15T09:01:13;19.20;;;14.20;;
76786;SDS011;65739;51.482;5.702;2023-05-15T09:04:02;19.58;;;15.32;;
76786;SDS011;65739;51.482;5.702;2023-05-15T09:10:12;21.15;;;14.32;;
76786;SDS011;65739;51.482;5.702;2023-05-15T09:16:02;14.23;;;12.40;;
76786;SDS011;65739;51.482;5.702;2023-05-15T09:18:36;18.45;;;12.40;;
76786;SDS011;65739;51.482;5.702;2023-05-15T09:21:23;18.73;;;14.25;;
76786;SDS011;65739;51.482;5.702;2023-05-15T09:23:49;17.55;;;13.00;;
76786;SDS011;65739;51.482;5.702;2023-05-15T09:26:15;16.42;;;12.57;;
76786;SDS011;65739;51.482;5.702;2023-05-15T09:28:40;23.17;;;13.07;;
76786;SDS011;65739;51.482;5.702;2023-05-15T09:31:07;16.75;;;13.75;;
76786;SDS011;65739;51.482;5.702;2023-05-15T09:33:34;16.10;;;13.20;;
76786;SDS011;65739;51.482;5.702;2023-05-15T09:36:01;20.73;;;13.43;;
76786;SDS011;65739;51.482;5.702;2023-05-15T09:38:28;17.90;;;12.85;;
76786;SDS011;65739;51.482;5.702;2023-05-15T09:40:59;16.23;;;13.57;;
76786;SDS011;65739;51.482;5.702;2023-05-15T09:43:27;18.40;;;14.95;;
76786;SDS011;65739;51.482;5.702;2023-05-15T09:45:53;16.70;;;12.90;;
76786;SDS011;65739;51.482;5.702;2023-05-15T09:48:24;19.95;;;15.85;;
76786;SDS011;65739;51.482;5.702;2023-05-15T09:50:52;20.95;;;14.63;;
76786;SDS011;65739;51.482;5.702;2023-05-15T09:53:18;21.60;;;16.20;;
76786;SDS011;65739;51.482;5.702;2023-05-15T09:55:46;17.63;;;14.52;;
76786;SDS011;65739;51.482;5.702;2023-05-15T09:58:13;19.55;;;16.15;;
76786;SDS011;65739;51.482;5.702;2023-05-15T10:00:43;15.35;;;13.38;;
76786;SDS011;65739;51.482;5.702;2023-05-15T10:03:09;14.38;;;12.73;;
76786;SDS011;65739;51.482;5.702;2023-05-15T10:05:35;17.45;;;13.77;;
76786;SDS011;65739;51.482;5.702;2023-05-15T10:08:22;18.48;;;14.50;;
76786;SDS011;65739;51.482;5.702;2023-05-15T10:14:22;22.02;;;17.85;;
76786;SDS011;65739;51.482;5.702;2023-05-15T10:17:01;22.20;;;17.92;;
76786;SDS011;65739;51.482;5.702;2023-05-15T10:20:12;24.83;;;18.45;;
76786;SDS011;65739;51.482;5.702;2023-05-15T10:23:08;16.30;;;13.02;;
76786;SDS011;65739;51.482;5.702;2023-05-15T10:29:40;26.17;;;19.23;;
76786;SDS011;65739;51.482;5.702;2023-05-15T10:32:13;23.65;;;17.95;;
76786;SDS011;65739;51.482;5.702;2023-05-15T10:38:33;25.17;;;18.67;;
76786;SDS011;65739;51.482;5.702;2023-05-15T10:41:40;30.52;;;18.95;;
76786;SDS011;65739;51.482;5.702;2023-05-15T10:44:49;27.23;;;19.40;;
76786;SDS011;65739;51.482;5.702;2023-05-15T10:47:28;23.33;;;18.25;;
76786;SDS011;65739;51.482;5.702;2023-05-15T10:49:55;19.33;;;15.82;;
76786;SDS011;65739;51.482;5.702;2023-05-15T10:52:22;21.42;;;16.88;;
76786;SDS011;65739;51.482;5.702;2023-05-15T10:54:48;21.33;;;15.93;;
76786;SDS011;65739;51.482;5.702;2023-05-15T10:57:14;18.65;;;15.23;;
76786;SDS011;65739;51.482;5.702;2023-05-15T10:59:39;20.65;;;15.82;;
76786;SDS011;65739;51.482;5.702;2023-05-15T11:02:24;20.13;;;15.32;;
76786;SDS011;65739;51.482;5.702;2023-05-15T11:04:57;19.67;;;14.60;;
76786;SDS011;65739;51.482;5.702;2023-05-15T11:07:24;20.27;;;13.60;;
76786;SDS011;65739;51.482;5.702;2023-05-15T11:09:51;17.67;;;12.80;;
76786;SDS011;65739;51.482;5.702;2023-05-15T11:12:17;18.70;;;13.27;;
76786;SDS011;65739;51.482;5.702;2023-05-15T11:17:24;19.40;;;15.73;;
76786;SDS011;65739;51.482;5.702;2023-05-15T11:22:32;17.98;;;14.80;;
76786;SDS011;65739;51.482;5.702;2023-05-15T11:25:03;19.98;;;15.18;;
76786;SDS011;65739;51.482;5.702;2023-05-15T11:30:02;21.50;;;17.10;;
76786;SDS011;65739;51.482;5.702;2023-05-15T11:32:52;18.48;;;15.60;;
76786;SDS011;65739;51.482;5.702;2023-05-15T11:35:25;20.45;;;15.98;;
76786;SDS011;65739;51.482;5.702;2023-05-15T11:38:03;21.52;;;15.07;;
76786;SDS011;65739;51.482;5.702;2023-05-15T11:40:44;20.05;;;15.48;;
76786;SDS011;65739;51.482;5.702;2023-05-15T11:45:58;18.35;;;13.25;;
76786;SDS011;65739;51.482;5.702;2023-05-15T11:48:30;20.00;;;15.10;;
76786;SDS011;65739;51.482;5.702;2023-05-15T11:50:59;18.75;;;13.50;;
76786;SDS011;65739;51.482;5.702;2023-05-15T11:53:25;17.60;;;13.63;;
76786;SDS011;65739;51.482;5.702;2023-05-15T11:55:53;18.02;;;14.25;;
76786;SDS011;65739;51.482;5.702;2023-05-15T11:58:25;15.95;;;14.18;;
76786;SDS011;65739;51.482;5.702;2023-05-15T12:00:53;20.73;;;15.45;;
76786;SDS011;65739;51.482;5.702;2023-05-15T12:03:40;20.00;;;15.98;;
76786;SDS011;65739;51.482;5.702;2023-05-15T12:06:09;20.38;;;16.40;;
76786;SDS011;65739;51.482;5.702;2023-05-15T12:08:35;21.77;;;16.42;;
76786;SDS011;65739;51.482;5.702;2023-05-15T12:11:05;24.05;;;17.00;;
76786;SDS011;65739;51.482;5.702;2023-05-15T12:13:32;21.88;;;15.95;;
76786;SDS011;65739;51.482;5.702;2023-05-15T12:15:59;25.08;;;15.30;;
76786;SDS011;65739;51.482;5.702;2023-05-15T12:18:31;21.45;;;16.10;;
76786;SDS011;65739;51.482;5.702;2023-05-15T12:21:00;20.48;;;16.30;;
76786;SDS011;65739;51.482;5.702;2023-05-15T12:23:28;22.42;;;17.85;;
76786;SDS011;65739;51.482;5.702;2023-05-15T12:25:56;23.17;;;16.95;;
76786;SDS011;65739;51.482;5.702;2023-05-15T12:28:27;24.10;;;18.10;;
76786;SDS011;65739;51.482;5.702;2023-05-15T12:30:54;28.23;;;18.30;;
76786;SDS011;65739;51.482;5.702;2023-05-15T12:33:23;26.00;;;19.52;;
76786;SDS011;65739;51.482;5.702;2023-05-15T12:35:50;25.42;;;20.20;;
76786;SDS011;65739;51.482;5.702;2023-05-15T12:38:18;26.08;;;20.55;;
76786;SDS011;65739;51.482;5.702;2023-05-15T12:40:46;29.45;;;23.13;;
76786;SDS011;65739;51.482;5.702;2023-05-15T12:43:17;32.45;;;25.00;;
76786;SDS011;65739;51.482;5.702;2023-05-15T12:45:43;35.17;;;25.92;;
76786;SDS011;65739;51.482;5.702;2023-05-15T12:48:13;39.08;;;26.00;;
76786;SDS011;65739;51.482;5.702;2023-05-15T12:50:43;33.55;;;25.80;;
76786;SDS011;65739;51.482;5.702;2023-05-15T12:53:09;33.47;;;25.52;;
76786;SDS011;65739;51.482;5.702;2023-05-15T12:55:38;34.55;;;24.88;;
76786;SDS011;65739;51.482;5.702;2023-05-15T12:58:06;31.77;;;24.45;;
76786;SDS011;65739;51.482;5.702;2023-05-15T13:00:40;31.42;;;24.85;;
76786;SDS011;65739;51.482;5.702;2023-05-15T13:03:09;31.23;;;23.17;;
76786;SDS011;65739;51.482;5.702;2023-05-15T13:05:40;31.63;;;23.77;;
76786;SDS011;65739;51.482;5.702;2023-05-15T13:08:07;29.08;;;22.65;;
76786;SDS011;65739;51.482;5.702;2023-05-15T13:10:33;32.08;;;25.05;;
76786;SDS011;65739;51.482;5.702;2023-05-15T13:13:01;30.77;;;24.02;;
76786;SDS011;65739;51.482;5.702;2023-05-15T13:15:44;32.35;;;23.95;;
76786;SDS011;65739;51.482;5.702;2023-05-15T13:18:13;30.23;;;22.80;;
76786;SDS011;65739;51.482;5.702;2023-05-15T13:23:09;37.05;;;26.70;;
76786;SDS011;65739;51.482;5.702;2023-05-15T13:25:37;43.65;;;29.20;;
76786;SDS011;65739;51.482;5.702;2023-05-15T13:28:04;40.47;;;30.83;;
76786;SDS011;65739;51.482;5.702;2023-05-15T13:30:33;44.05;;;32.13;;
76786;SDS011;65739;51.482;5.702;2023-05-15T13:32:59;42.45;;;31.08;;
76786;SDS011;65739;51.482;5.702;2023-05-15T13:35:30;41.15;;;29.80;;
76786;SDS011;65739;51.482;5.702;2023-05-15T13:37:55;36.38;;;28.45;;
76786;SDS011;65739;51.482;5.702;2023-05-15T13:40:21;39.63;;;28.75;;
76786;SDS011;65739;51.482;5.702;2023-05-15T13:42:59;38.50;;;29.48;;
76786;SDS011;65739;51.482;5.702;2023-05-15T13:45:37;41.22;;;29.35;;
76786;SDS011;65739;51.482;5.702;2023-05-15T13:48:18;44.47;;;32.88;;
76786;SDS011;65739;51.482;5.702;2023-05-15T13:51:00;45.60;;;33.78;;
76786;SDS011;65739;51.482;5.702;2023-05-15T13:53:30;45.80;;;33.33;;
76786;SDS011;65739;51.482;5.702;2023-05-15T13:55:58;46.78;;;34.20;;
76786;SDS011;65739;51.482;5.702;2023-05-15T13:58:44;54.50;;;36.03;;
76786;SDS011;65739;51.482;5.702;2023-05-15T14:01:17;49.33;;;34.50;;
76786;SDS011;65739;51.482;5.702;2023-05-15T14:03:47;43.08;;;32.17;;
76786;SDS011;65739;51.482;5.702;2023-05-15T14:06:28;48.58;;;34.20;;
76786;SDS011;65739;51.482;5.702;2023-05-15T14:09:04;49.08;;;34.00;;
76786;SDS011;65739;51.482;5.702;2023-05-15T14:12:02;46.38;;;32.03;;
76786;SDS011;65739;51.482;5.702;2023-05-15T14:18:27;41.50;;;28.35;;
76786;SDS011;65739;51.482;5.702;2023-05-15T14:21:33;38.65;;;27.10;;
76786;SDS011;65739;51.482;5.702;2023-05-15T14:28:06;39.53;;;28.88;;
76786;SDS011;65739;51.482;5.702;2023-05-15T14:31:08;42.45;;;28.45;;
76786;SDS011;65739;51.482;5.702;2023-05-15T14:33:56;42.08;;;27.73;;
76786;SDS011;65739;51.482;5.702;2023-05-15T14:40:23;28.35;;;19.08;;
76786;SDS011;65739;51.482;5.702;2023-05-15T14:43:46;27.38;;;19.63;;
76786;SDS011;65739;51.482;5.702;2023-05-15T14:46:37;28.92;;;19.95;;
76786;SDS011;65739;51.482;5.702;2023-05-15T14:50:04;29.50;;;19.52;;
76786;SDS011;65739;51.482;5.702;2023-05-15T14:59:43;21.15;;;15.18;;
76786;SDS011;65739;51.482;5.702;2023-05-15T15:02:42;16.23;;;12.20;;
76786;SDS011;65739;51.482;5.702;2023-05-15T15:09:03;10.85;;;7.47;;
76786;SDS011;65739;51.482;5.702;2023-05-15T15:12:24;12.68;;;7.65;;
76786;SDS011;65739;51.482;5.702;2023-05-15T15:15:19;15.23;;;6.82;;
76786;SDS011;65739;51.482;5.702;2023-05-15T15:18:33;12.25;;;5.85;;
76786;SDS011;65739;51.482;5.702;2023-05-15T15:25:05;14.90;;;6.63;;
76786;SDS011;65739;51.482;5.702;2023-05-15T15:28:11;12.73;;;6.45;;
76786;SDS011;65739;51.482;5.702;2023-05-15T15:30:37;11.23;;;6.72;;
76786;SDS011;65739;51.482;5.702;2023-05-15T15:33:03;13.27;;;6.38;;
76786;SDS011;65739;51.482;5.702;2023-05-15T15:35:28;13.43;;;5.80;;
76786;SDS011;65739;51.482;5.702;2023-05-15T15:37:54;10.05;;;5.85;;
76786;SDS011;65739;51.482;5.702;2023-05-15T15:40:20;9.73;;;5.70;;
76786;SDS011;65739;51.482;5.702;2023-05-15T15:42:47;8.68;;;5.85;;
76786;SDS011;65739;51.482;5.702;2023-05-15T15:45:15;11.43;;;5.75;;
76786;SDS011;65739;51.482;5.702;2023-05-15T15:47:40;7.68;;;4.57;;
76786;SDS011;65739;51.482;5.702;2023-05-15T15:50:06;9.30;;;4.85;;
76786;SDS011;65739;51.482;5.702;2023-05-15T15:52:34;7.85;;;4.70;;
76786;SDS011;65739;51.482;5.702;2023-05-15T15:55:02;10.38;;;4.32;;
76786;SDS011;65739;51.482;5.702;2023-05-15T15:57:28;9.85;;;4.45;;
76786;SDS011;65739;51.482;5.702;2023-05-15T15:59:58;7.43;;;3.60;;
76786;SDS011;65739;51.482;5.702;2023-05-15T16:02:37;11.85;;;3.85;;
76786;SDS011;65739;51.482;5.702;2023-05-15T16:05:09;5.30;;;3.50;;
76786;SDS011;65739;51.482;5.702;2023-05-15T16:11:36;8.57;;;3.55;;
76786;SDS011;65739;51.482;5.702;2023-05-15T16:14:37;13.23;;;3.85;;
76786;SDS011;65739;51.482;5.702;2023-05-15T16:17:59;10.80;;;4.00;;
76786;SDS011;65739;51.482;5.702;2023-05-15T16:21:22;13.93;;;4.57;;
76786;SDS011;65739;51.482;5.702;2023-05-15T16:24:03;10.40;;;3.60;;
76786;SDS011;65739;51.482;5.702;2023-05-15T16:27:09;10.55;;;3.63;;
76786;SDS011;65739;51.482;5.702;2023-05-15T16:29:40;13.05;;;3.50;;
76786;SDS011;65739;51.482;5.702;2023-05-15T16:32:42;13.50;;;3.72;;
76786;SDS011;65739;51.482;5.702;2023-05-15T16:35:20;11.00;;;3.42;;
76786;SDS011;65739;51.482;5.702;2023-05-15T16:47:40;9.50;;;3.00;;
76786;SDS011;65739;51.482;5.702;2023-05-15T16:50:21;7.43;;;2.80;;
76786;SDS011;65739;51.482;5.702;2023-05-15T16:53:38;4.28;;;2.53;;
76786;SDS011;65739;51.482;5.702;2023-05-15T16:56:46;6.80;;;2.22;;
76786;SDS011;65739;51.482;5.702;2023-05-15T16:59:26;5.25;;;2.33;;
76786;SDS011;65739;51.482;5.702;2023-05-15T17:02:09;3.92;;;2.40;;
76786;SDS011;65739;51.482;5.702;2023-05-15T17:08:19;4.55;;;2.22;;
76786;SDS011;65739;51.482;5.702;2023-05-15T17:11:02;2.67;;;2.03;;
76786;SDS011;65739;51.482;5.702;2023-05-15T17:13:58;4.40;;;2.28;;
76786;SDS011;65739;51.482;5.702;2023-05-15T17:16:56;5.47;;;2.10;;
76786;SDS011;65739;51.482;5.702;2023-05-15T17:19:57;4.78;;;2.10;;
76786;SDS011;65739;51.482;5.702;2023-05-15T17:22:43;5.25;;;2.65;;
76786;SDS011;65739;51.482;5.702;2023-05-15T17:28:44;6.05;;;2.10;;
76786;SDS011;65739;51.482;5.702;2023-05-15T17:31:35;3.67;;;2.17;;
76786;SDS011;65739;51.482;5.702;2023-05-15T17:34:41;8.20;;;2.10;;
76786;SDS011;65739;51.482;5.702;2023-05-15T17:44:05;6.68;;;2.55;;
76786;SDS011;65739;51.482;5.702;2023-05-15T17:46:53;4.40;;;2.25;;
76786;SDS011;65739;51.482;5.702;2023-05-15T17:49:44;6.30;;;2.38;;
76786;SDS011;65739;51.482;5.702;2023-05-15T17:52:39;4.53;;;2.20;;
76786;SDS011;65739;51.482;5.702;2023-05-15T17:55:48;4.95;;;2.00;;
76786;SDS011;65739;51.482;5.702;2023-05-15T18:01:49;8.35;;;2.33;;
76786;SDS011;65739;51.482;5.702;2023-05-15T18:04:37;8.25;;;2.35;;
76786;SDS011;65739;51.482;5.702;2023-05-15T18:10:20;7.13;;;2.63;;
76786;SDS011;65739;51.482;5.702;2023-05-15T18:13:34;7.55;;;2.35;;
76786;SDS011;65739;51.482;5.702;2023-05-15T18:16:07;11.13;;;2.78;;
76786;SDS011;65739;51.482;5.702;2023-05-15T18:19:17;8.40;;;2.22;;
76786;SDS011;65739;51.482;5.702;2023-05-15T18:22:03;7.60;;;2.53;;
76786;SDS011;65739;51.482;5.702;2023-05-15T18:25:12;9.18;;;3.17;;
76786;SDS011;65739;51.482;5.702;2023-05-15T18:27:59;10.38;;;2.90;;
76786;SDS011;65739;51.482;5.702;2023-05-15T18:34:04;6.75;;;2.75;;
76786;SDS011;65739;51.482;5.702;2023-05-15T18:36:34;8.35;;;2.78;;
76786;SDS011;65739;51.482;5.702;2023-05-15T18:59:14;9.77;;;3.45;;
76786;SDS011;65739;51.482;5.702;2023-05-15T19:02:02;8.30;;;3.00;;
76786;SDS011;65739;51.482;5.702;2023-05-15T19:08:32;10.00;;;3.00;;
76786;SDS011;65739;51.482;5.702;2023-05-15T19:11:35;15.52;;;3.60;;
76786;SDS011;65739;51.482;5.702;2023-05-15T19:14:21;12.05;;;4.47;;
76786;SDS011;65739;51.482;5.702;2023-05-15T19:17:23;11.63;;;3.50;;
76786;SDS011;65739;51.482;5.702;2023-05-15T19:27:17;12.27;;;4.25;;
76786;SDS011;65739;51.482;5.702;2023-05-15T19:30:13;12.50;;;4.38;;
76786;SDS011;65739;51.482;5.702;2023-05-15T19:32:46;9.52;;;4.15;;
76786;SDS011;65739;51.482;5.702;2023-05-15T19:35:14;12.85;;;4.15;;
76786;SDS011;65739;51.482;5.702;2023-05-15T19:37:40;20.33;;;4.07;;
76786;SDS011;65739;51.482;5.702;2023-05-15T19:40:05;8.63;;;3.13;;
76786;SDS011;65739;51.482;5.702;2023-05-15T19:42:32;16.30;;;3.88;;
76786;SDS011;65739;51.482;5.702;2023-05-15T19:44:59;16.92;;;4.30;;
76786;SDS011;65739;51.482;5.702;2023-05-15T19:47:25;16.90;;;3.42;;
76786;SDS011;65739;51.482;5.702;2023-05-15T19:49:51;16.25;;;3.28;;
76786;SDS011;65739;51.482;5.702;2023-05-15T19:52:17;11.85;;;3.20;;
76786;SDS011;65739;51.482;5.702;2023-05-15T19:54:43;14.65;;;3.05;;
76786;SDS011;65739;51.482;5.702;2023-05-15T19:57:09;10.10;;;3.10;;
76786;SDS011;65739;51.482;5.702;2023-05-15T19:59:34;14.38;;;3.60;;
76786;SDS011;65739;51.482;5.702;2023-05-15T20:02:00;15.15;;;4.15;;
76786;SDS011;65739;51.482;5.702;2023-05-15T20:04:26;11.35;;;3.50;;
76786;SDS011;65739;51.482;5.702;2023-05-15T20:06:52;13.10;;;3.30;;
76786;SDS011;65739;51.482;5.702;2023-05-15T20:09:18;16.33;;;3.42;;
76786;SDS011;65739;51.482;5.702;2023-05-15T20:11:43;12.85;;;3.10;;
76786;SDS011;65739;51.482;5.702;2023-05-15T20:14:12;14.57;;;2.95;;
76786;SDS011;65739;51.482;5.702;2023-05-15T20:16:38;13.48;;;3.28;;
76786;SDS011;65739;51.482;5.702;2023-05-15T20:19:06;11.35;;;3.10;;
76786;SDS011;65739;51.482;5.702;2023-05-15T20:21:31;16.42;;;2.90;;
76786;SDS011;65739;51.482;5.702;2023-05-15T20:23:57;13.75;;;3.20;;
76786;SDS011;65739;51.482;5.702;2023-05-15T20:26:22;17.88;;;3.22;;
76786;SDS011;65739;51.482;5.702;2023-05-15T20:28:50;13.90;;;3.13;;
76786;SDS011;65739;51.482;5.702;2023-05-15T20:31:16;13.48;;;3.25;;
76786;SDS011;65739;51.482;5.702;2023-05-15T20:33:41;13.30;;;2.58;;
76786;SDS011;65739;51.482;5.702;2023-05-15T20:36:07;17.02;;;3.17;;
76786;SDS011;65739;51.482;5.702;2023-05-15T20:38:33;10.52;;;2.80;;
76786;SDS011;65739;51.482;5.702;2023-05-15T20:40:59;10.63;;;2.67;;
76786;SDS011;65739;51.482;5.702;2023-05-15T20:43:32;9.50;;;2.80;;
76786;SDS011;65739;51.482;5.702;2023-05-15T20:45:57;12.63;;;2.75;;
76786;SDS011;65739;51.482;5.702;2023-05-15T20:48:23;8.27;;;2.53;;
76786;SDS011;65739;51.482;5.702;2023-05-15T20:50:48;7.05;;;3.05;;
76786;SDS011;65739;51.482;5.702;2023-05-15T20:53:17;9.52;;;2.25;;
76786;SDS011;65739;51.482;5.702;2023-05-15T20:55:42;11.15;;;2.65;;
76786;SDS011;65739;51.482;5.702;2023-05-15T20:58:08;11.73;;;2.97;;
76786;SDS011;65739;51.482;5.702;2023-05-15T21:00:34;9.40;;;2.33;;
76786;SDS011;65739;51.482;5.702;2023-05-15T21:02:59;7.70;;;2.30;;
76786;SDS011;65739;51.482;5.702;2023-05-15T21:05:25;8.38;;;2.35;;
76786;SDS011;65739;51.482;5.702;2023-05-15T21:07:57;11.40;;;2.50;;
76786;SDS011;65739;51.482;5.702;2023-05-15T21:10:23;9.07;;;2.40;;
76786;SDS011;65739;51.482;5.702;2023-05-15T21:12:51;9.07;;;2.00;;